sensor_id;sensor_type;location;lat;lon;timestamp;temperature;humidity
20125;DHT22;10223;50.862;4.360;2024-02-14T00:00:56;9.00;99.90
20125;DHT22;10223;50.862;4.360;2024-02-14T00:03:23;9.00;99.90
20125;DHT22;10223;50.862;4.360;2024-02-14T00:05:50;9.00;99.90
20125;DHT22;10223;50.862;4.360;2024-02-14T00:08:18;9.00;99.90
20125;DHT22;10223;50.862;4.360;2024-02-14T00:10:46;9.00;99.90
20125;DHT22;10223;50.862;4.360;2024-02-14T00:13:14;9.00;99.90
20125;DHT22;10223;50.862;4.360;2024-02-14T00:15:43;9.10;99.90
20125;DHT22;10223;50.862;4.360;2024-02-14T00:18:11;9.10;99.90
20125;DHT22;10223;50.862;4.360;2024-02-14T00:20:38;9.20;99.90
20125;DHT22;10223;50.862;4.360;2024-02-14T00:23:05;9.20;99.90
20125;DHT22;10223;50.862;4.360;2024-02-14T00:25:32;9.20;99.90
20125;DHT22;10223;50.862;4.360;2024-02-14T00:28:00;9.20;99.90
20125;DHT22;10223;50.862;4.360;2024-02-14T00:30:29;9.30;99.90
20125;DHT22;10223;50.862;4.360;2024-02-14T00:32:56;9.20;99.90
20125;DHT22;10223;50.862;4.360;2024-02-14T00:35:23;9.30;99.90
20125;DHT22;10223;50.862;4.360;2024-02-14T00:37:50;9.30;99.90
20125;DHT22;10223;50.862;4.360;2024-02-14T00:40:17;9.40;99.90
20125;DHT22;10223;50.862;4.360;2024-02-14T00:42:44;9.40;99.90
20125;DHT22;10223;50.862;4.360;2024-02-14T00:45:13;9.40;99.90
20125;DHT22;10223;50.862;4.360;2024-02-14T00:47:40;9.40;99.90
20125;DHT22;10223;50.862;4.360;2024-02-14T00:50:08;9.40;99.90
20125;DHT22;10223;50.862;4.360;2024-02-14T00:52:35;9.40;99.90
20125;DHT22;10223;50.862;4.360;2024-02-14T00:55:02;9.40;99.90
20125;DHT22;10223;50.862;4.360;2024-02-14T00:57:29;9.40;99.90
20125;DHT22;10223;50.862;4.360;2024-02-14T00:59:56;9.50;99.90
20125;DHT22;10223;50.862;4.360;2024-02-14T01:02:24;9.50;99.90
20125;DHT22;10223;50.862;4.360;2024-02-14T01:04:51;9.50;99.90
20125;DHT22;10223;50.862;4.360;2024-02-14T01:07:18;9.50;99.90
20125;DHT22;10223;50.862;4.360;2024-02-14T01:09:45;9.40;99.90
20125;DHT22;10223;50.862;4.360;2024-02-14T01:12:12;9.50;99.90
20125;DHT22;10223;50.862;4.360;2024-02-14T01:14:39;9.50;99.90
20125;DHT22;10223;50.862;4.360;2024-02-14T01:17:06;9.40;99.90
20125;DHT22;10223;50.862;4.360;2024-02-14T01:19:35;9.40;99.90
20125;DHT22;10223;50.862;4.360;2024-02-14T01:22:02;9.50;99.90
20125;DHT22;10223;50.862;4.360;2024-02-14T01:24:29;9.40;99.90
20125;DHT22;10223;50.862;4.360;2024-02-14T01:26:56;9.40;99.90
20125;DHT22;10223;50.862;4.360;2024-02-14T01:29:23;9.30;99.90
20125;DHT22;10223;50.862;4.360;2024-02-14T01:31:50;9.30;99.90
20125;DHT22;10223;50.862;4.360;2024-02-14T01:34:17;9.30;99.90
20125;DHT22;10223;50.862;4.360;2024-02-14T01:36:48;9.20;99.90
20125;DHT22;10223;50.862;4.360;2024-02-14T01:39:15;9.30;99.90
20125;DHT22;10223;50.862;4.360;2024-02-14T01:41:44;9.20;99.90
20125;DHT22;10223;50.862;4.360;2024-02-14T01:44:13;9.30;99.90
20125;DHT22;10223;50.862;4.360;2024-02-14T01:46:41;9.20;99.90
20125;DHT22;10223;50.862;4.360;2024-02-14T01:49:08;9.20;99.90
20125;DHT22;10223;50.862;4.360;2024-02-14T01:51:38;9.20;99.90
20125;DHT22;10223;50.862;4.360;2024-02-14T01:54:10;9.30;99.90
20125;DHT22;10223;50.862;4.360;2024-02-14T01:56:38;9.20;99.90
20125;DHT22;10223;50.862;4.360;2024-02-14T01:59:05;9.20;99.90
20125;DHT22;10223;50.862;4.360;2024-02-14T02:01:32;9.20;99.90
20125;DHT22;10223;50.862;4.360;2024-02-14T02:04:00;9.20;99.90
20125;DHT22;10223;50.862;4.360;2024-02-14T02:06:27;9.20;99.90
20125;DHT22;10223;50.862;4.360;2024-02-14T02:08:56;9.20;99.90
20125;DHT22;10223;50.862;4.360;2024-02-14T02:11:25;9.20;99.90
20125;DHT22;10223;50.862;4.360;2024-02-14T02:13:53;9.20;99.90
20125;DHT22;10223;50.862;4.360;2024-02-14T02:16:20;9.20;99.90
20125;DHT22;10223;50.862;4.360;2024-02-14T02:18:48;9.20;99.90
20125;DHT22;10223;50.862;4.360;2024-02-14T02:21:15;9.20;99.90
20125;DHT22;10223;50.862;4.360;2024-02-14T02:23:46;9.20;99.90
20125;DHT22;10223;50.862;4.360;2024-02-14T02:26:13;9.20;99.90
20125;DHT22;10223;50.862;4.360;2024-02-14T02:28:40;9.30;99.90
20125;DHT22;10223;50.862;4.360;2024-02-14T02:31:08;9.30;99.90
20125;DHT22;10223;50.862;4.360;2024-02-14T02:33:35;9.30;99.90
20125;DHT22;10223;50.862;4.360;2024-02-14T02:36:03;9.40;99.90
20125;DHT22;10223;50.862;4.360;2024-02-14T02:38:30;9.40;99.90
20125;DHT22;10223;50.862;4.360;2024-02-14T02:40:58;9.40;99.90
20125;DHT22;10223;50.862;4.360;2024-02-14T02:43:26;9.50;99.90
20125;DHT22;10223;50.862;4.360;2024-02-14T02:45:53;9.50;99.90
20125;DHT22;10223;50.862;4.360;2024-02-14T02:48:20;9.50;99.90
20125;DHT22;10223;50.862;4.360;2024-02-14T02:50:48;9.50;99.90
20125;DHT22;10223;50.862;4.360;2024-02-14T02:53:16;9.50;99.90
20125;DHT22;10223;50.862;4.360;2024-02-14T02:55:43;9.50;99.90
20125;DHT22;10223;50.862;4.360;2024-02-14T02:58:11;9.60;99.90
20125;DHT22;10223;50.862;4.360;2024-02-14T03:00:39;9.70;99.90
20125;DHT22;10223;50.862;4.360;2024-02-14T03:03:07;9.70;99.90
20125;DHT22;10223;50.862;4.360;2024-02-14T03:05:34;9.70;99.90
20125;DHT22;10223;50.862;4.360;2024-02-14T03:08:01;9.70;99.90
20125;DHT22;10223;50.862;4.360;2024-02-14T03:10:28;9.70;99.90
20125;DHT22;10223;50.862;4.360;2024-02-14T03:12:56;9.80;99.90
20125;DHT22;10223;50.862;4.360;2024-02-14T03:15:24;9.70;99.90
20125;DHT22;10223;50.862;4.360;2024-02-14T03:17:51;9.80;99.90
20125;DHT22;10223;50.862;4.360;2024-02-14T03:20:18;9.80;99.90
20125;DHT22;10223;50.862;4.360;2024-02-14T03:22:45;9.80;99.90
20125;DHT22;10223;50.862;4.360;2024-02-14T03:25:13;9.80;99.90
20125;DHT22;10223;50.862;4.360;2024-02-14T03:27:42;9.70;99.90
20125;DHT22;10223;50.862;4.360;2024-02-14T03:30:11;9.70;99.90
20125;DHT22;10223;50.862;4.360;2024-02-14T03:32:43;9.70;99.90
20125;DHT22;10223;50.862;4.360;2024-02-14T03:35:10;9.70;99.90
20125;DHT22;10223;50.862;4.360;2024-02-14T03:37:39;9.70;99.90
20125;DHT22;10223;50.862;4.360;2024-02-14T03:40:07;9.80;99.90
20125;DHT22;10223;50.862;4.360;2024-02-14T03:42:35;9.80;99.90
20125;DHT22;10223;50.862;4.360;2024-02-14T03:45:06;9.80;99.90
20125;DHT22;10223;50.862;4.360;2024-02-14T03:47:33;9.70;99.90
20125;DHT22;10223;50.862;4.360;2024-02-14T03:50:01;9.70;99.90
20125;DHT22;10223;50.862;4.360;2024-02-14T03:52:30;9.70;99.90
20125;DHT22;10223;50.862;4.360;2024-02-14T03:54:57;9.70;99.90
20125;DHT22;10223;50.862;4.360;2024-02-14T03:57:24;9.70;99.90
20125;DHT22;10223;50.862;4.360;2024-02-14T03:59:54;9.70;99.90
20125;DHT22;10223;50.862;4.360;2024-02-14T04:02:21;9.70;99.90
20125;DHT22;10223;50.862;4.360;2024-02-14T04:04:49;9.70;99.90
20125;DHT22;10223;50.862;4.360;2024-02-14T04:07:17;9.70;99.90
20125;DHT22;10223;50.862;4.360;2024-02-14T04:09:44;9.70;99.90
20125;DHT22;10223;50.862;4.360;2024-02-14T04:12:11;9.70;99.90
20125;DHT22;10223;50.862;4.360;2024-02-14T04:14:39;9.70;99.90
20125;DHT22;10223;50.862;4.360;2024-02-14T04:17:06;9.70;99.90
20125;DHT22;10223;50.862;4.360;2024-02-14T04:19:34;9.80;99.90
20125;DHT22;10223;50.862;4.360;2024-02-14T04:22:01;9.70;99.90
20125;DHT22;10223;50.862;4.360;2024-02-14T04:24:29;9.80;99.90
20125;DHT22;10223;50.862;4.360;2024-02-14T04:26:56;9.80;99.90
20125;DHT22;10223;50.862;4.360;2024-02-14T04:29:23;9.80;99.90
20125;DHT22;10223;50.862;4.360;2024-02-14T04:31:50;9.70;99.90
20125;DHT22;10223;50.862;4.360;2024-02-14T04:34:18;9.60;99.90
20125;DHT22;10223;50.862;4.360;2024-02-14T04:36:45;9.70;99.90
20125;DHT22;10223;50.862;4.360;2024-02-14T04:39:12;9.70;99.90
20125;DHT22;10223;50.862;4.360;2024-02-14T04:41:40;9.80;99.90
20125;DHT22;10223;50.862;4.360;2024-02-14T04:44:07;9.70;99.90
20125;DHT22;10223;50.862;4.360;2024-02-14T04:46:34;9.80;99.90
20125;DHT22;10223;50.862;4.360;2024-02-14T04:49:02;9.80;99.90
20125;DHT22;10223;50.862;4.360;2024-02-14T04:51:29;9.80;99.90
20125;DHT22;10223;50.862;4.360;2024-02-14T04:53:56;9.80;99.90
20125;DHT22;10223;50.862;4.360;2024-02-14T04:56:24;9.90;99.90
20125;DHT22;10223;50.862;4.360;2024-02-14T04:58:53;9.90;99.90
20125;DHT22;10223;50.862;4.360;2024-02-14T05:01:20;9.90;99.90
20125;DHT22;10223;50.862;4.360;2024-02-14T05:03:47;9.90;99.90
20125;DHT22;10223;50.862;4.360;2024-02-14T05:06:15;9.90;99.90
20125;DHT22;10223;50.862;4.360;2024-02-14T05:08:42;9.90;99.90
20125;DHT22;10223;50.862;4.360;2024-02-14T05:11:09;9.90;99.90
20125;DHT22;10223;50.862;4.360;2024-02-14T05:13:36;9.90;99.90
20125;DHT22;10223;50.862;4.360;2024-02-14T05:16:05;9.90;99.90
20125;DHT22;10223;50.862;4.360;2024-02-14T05:18:33;9.90;99.90
20125;DHT22;10223;50.862;4.360;2024-02-14T05:21:00;9.90;99.90
20125;DHT22;10223;50.862;4.360;2024-02-14T05:23:28;9.90;99.90
20125;DHT22;10223;50.862;4.360;2024-02-14T05:25:55;9.90;99.90
20125;DHT22;10223;50.862;4.360;2024-02-14T05:28:21;9.90;99.90
20125;DHT22;10223;50.862;4.360;2024-02-14T05:30:48;10.00;99.90
20125;DHT22;10223;50.862;4.360;2024-02-14T05:33:17;10.00;99.90
20125;DHT22;10223;50.862;4.360;2024-02-14T05:35:45;10.00;99.90
20125;DHT22;10223;50.862;4.360;2024-02-14T05:38:12;10.00;99.90
20125;DHT22;10223;50.862;4.360;2024-02-14T05:40:39;10.00;99.90
20125;DHT22;10223;50.862;4.360;2024-02-14T05:43:08;10.00;99.90
20125;DHT22;10223;50.862;4.360;2024-02-14T05:45:35;10.10;99.90
20125;DHT22;10223;50.862;4.360;2024-02-14T05:48:02;10.10;99.90
20125;DHT22;10223;50.862;4.360;2024-02-14T05:50:31;10.10;99.90
20125;DHT22;10223;50.862;4.360;2024-02-14T05:52:58;10.10;99.90
20125;DHT22;10223;50.862;4.360;2024-02-14T05:55:25;10.10;99.90
20125;DHT22;10223;50.862;4.360;2024-02-14T05:57:52;10.10;99.90
20125;DHT22;10223;50.862;4.360;2024-02-14T06:00:19;10.20;99.90
20125;DHT22;10223;50.862;4.360;2024-02-14T06:02:47;10.20;99.90
20125;DHT22;10223;50.862;4.360;2024-02-14T06:05:14;10.20;99.90
20125;DHT22;10223;50.862;4.360;2024-02-14T06:07:42;10.20;99.90
20125;DHT22;10223;50.862;4.360;2024-02-14T06:10:10;10.20;99.90
20125;DHT22;10223;50.862;4.360;2024-02-14T06:12:37;10.20;99.90
20125;DHT22;10223;50.862;4.360;2024-02-14T06:15:06;10.20;99.90
20125;DHT22;10223;50.862;4.360;2024-02-14T06:17:34;10.30;99.90
20125;DHT22;10223;50.862;4.360;2024-02-14T06:20:01;10.30;99.90
20125;DHT22;10223;50.862;4.360;2024-02-14T06:22:31;10.40;99.90
20125;DHT22;10223;50.862;4.360;2024-02-14T06:25:00;10.40;99.90
20125;DHT22;10223;50.862;4.360;2024-02-14T06:27:30;10.30;99.90
20125;DHT22;10223;50.862;4.360;2024-02-14T06:29:57;10.40;99.90
20125;DHT22;10223;50.862;4.360;2024-02-14T06:32:25;10.30;99.90
20125;DHT22;10223;50.862;4.360;2024-02-14T06:34:52;10.40;99.90
20125;DHT22;10223;50.862;4.360;2024-02-14T06:37:19;10.30;99.90
20125;DHT22;10223;50.862;4.360;2024-02-14T06:39:46;10.30;99.90
20125;DHT22;10223;50.862;4.360;2024-02-14T06:42:15;10.30;99.90
20125;DHT22;10223;50.862;4.360;2024-02-14T06:44:42;10.40;99.90
20125;DHT22;10223;50.862;4.360;2024-02-14T06:47:09;10.40;99.90
20125;DHT22;10223;50.862;4.360;2024-02-14T06:49:36;10.40;99.90
20125;DHT22;10223;50.862;4.360;2024-02-14T06:52:04;10.40;99.90
20125;DHT22;10223;50.862;4.360;2024-02-14T06:54:31;10.40;99.90
20125;DHT22;10223;50.862;4.360;2024-02-14T06:56:57;10.30;99.90
20125;DHT22;10223;50.862;4.360;2024-02-14T06:59:26;10.40;99.90
20125;DHT22;10223;50.862;4.360;2024-02-14T07:01:53;10.40;99.90
20125;DHT22;10223;50.862;4.360;2024-02-14T07:04:20;10.40;99.90
20125;DHT22;10223;50.862;4.360;2024-02-14T07:06:51;10.40;99.90
20125;DHT22;10223;50.862;4.360;2024-02-14T07:09:18;10.40;99.90
20125;DHT22;10223;50.862;4.360;2024-02-14T07:11:45;10.40;99.90
20125;DHT22;10223;50.862;4.360;2024-02-14T07:14:12;10.50;99.90
20125;DHT22;10223;50.862;4.360;2024-02-14T07:16:40;10.50;99.90
20125;DHT22;10223;50.862;4.360;2024-02-14T07:19:07;10.50;99.90
20125;DHT22;10223;50.862;4.360;2024-02-14T07:21:34;10.50;99.90
20125;DHT22;10223;50.862;4.360;2024-02-14T07:24:04;10.50;99.90
20125;DHT22;10223;50.862;4.360;2024-02-14T07:26:31;10.50;99.90
20125;DHT22;10223;50.862;4.360;2024-02-14T07:28:58;10.50;99.90
20125;DHT22;10223;50.862;4.360;2024-02-14T07:31:28;10.60;99.90
20125;DHT22;10223;50.862;4.360;2024-02-14T07:33:57;10.60;99.90
20125;DHT22;10223;50.862;4.360;2024-02-14T07:36:24;10.60;99.90
20125;DHT22;10223;50.862;4.360;2024-02-14T07:38:51;10.60;99.90
20125;DHT22;10223;50.862;4.360;2024-02-14T07:41:18;10.60;99.90
20125;DHT22;10223;50.862;4.360;2024-02-14T07:43:45;10.60;99.90
20125;DHT22;10223;50.862;4.360;2024-02-14T07:46:17;10.60;99.90
20125;DHT22;10223;50.862;4.360;2024-02-14T07:48:44;10.70;99.90
20125;DHT22;10223;50.862;4.360;2024-02-14T07:51:13;10.80;99.90
20125;DHT22;10223;50.862;4.360;2024-02-14T07:53:40;10.70;99.90
20125;DHT22;10223;50.862;4.360;2024-02-14T07:56:07;10.70;99.90
20125;DHT22;10223;50.862;4.360;2024-02-14T07:58:34;10.70;99.90
20125;DHT22;10223;50.862;4.360;2024-02-14T08:01:01;10.70;99.90
20125;DHT22;10223;50.862;4.360;2024-02-14T08:03:29;10.70;99.90
20125;DHT22;10223;50.862;4.360;2024-02-14T08:05:56;10.80;99.90
20125;DHT22;10223;50.862;4.360;2024-02-14T08:08:25;10.80;99.90
20125;DHT22;10223;50.862;4.360;2024-02-14T08:10:53;10.80;99.90
20125;DHT22;10223;50.862;4.360;2024-02-14T08:13:19;10.80;99.90
20125;DHT22;10223;50.862;4.360;2024-02-14T08:15:46;10.80;99.90
20125;DHT22;10223;50.862;4.360;2024-02-14T08:18:13;10.80;99.90
20125;DHT22;10223;50.862;4.360;2024-02-14T08:20:40;10.80;99.90
20125;DHT22;10223;50.862;4.360;2024-02-14T08:23:07;10.70;99.90
20125;DHT22;10223;50.862;4.360;2024-02-14T08:25:36;10.70;99.90
20125;DHT22;10223;50.862;4.360;2024-02-14T08:28:03;10.70;99.90
20125;DHT22;10223;50.862;4.360;2024-02-14T08:30:30;10.70;99.90
20125;DHT22;10223;50.862;4.360;2024-02-14T08:32:57;10.70;99.90
20125;DHT22;10223;50.862;4.360;2024-02-14T08:35:24;10.70;99.90
20125;DHT22;10223;50.862;4.360;2024-02-14T08:37:51;10.70;99.90
20125;DHT22;10223;50.862;4.360;2024-02-14T08:40:18;10.70;99.90
20125;DHT22;10223;50.862;4.360;2024-02-14T08:42:46;10.70;99.90
20125;DHT22;10223;50.862;4.360;2024-02-14T08:45:13;10.70;99.90
20125;DHT22;10223;50.862;4.360;2024-02-14T08:47:40;10.70;99.90
20125;DHT22;10223;50.862;4.360;2024-02-14T08:50:10;10.70;99.90
20125;DHT22;10223;50.862;4.360;2024-02-14T08:52:37;10.70;99.90
20125;DHT22;10223;50.862;4.360;2024-02-14T08:55:05;10.70;99.90
20125;DHT22;10223;50.862;4.360;2024-02-14T08:57:36;10.80;99.90
20125;DHT22;10223;50.862;4.360;2024-02-14T09:00:06;10.80;99.90
20125;DHT22;10223;50.862;4.360;2024-02-14T09:02:33;10.90;99.90
20125;DHT22;10223;50.862;4.360;2024-02-14T09:05:00;10.90;99.90
20125;DHT22;10223;50.862;4.360;2024-02-14T09:07:29;10.90;99.90
20125;DHT22;10223;50.862;4.360;2024-02-14T09:09:57;10.90;99.90
20125;DHT22;10223;50.862;4.360;2024-02-14T09:12:24;11.00;99.90
20125;DHT22;10223;50.862;4.360;2024-02-14T09:14:51;11.00;99.90
20125;DHT22;10223;50.862;4.360;2024-02-14T09:17:23;11.10;99.90
20125;DHT22;10223;50.862;4.360;2024-02-14T09:19:53;11.10;99.90
20125;DHT22;10223;50.862;4.360;2024-02-14T09:22:20;11.10;99.90
20125;DHT22;10223;50.862;4.360;2024-02-14T09:24:47;11.10;99.90
20125;DHT22;10223;50.862;4.360;2024-02-14T09:27:14;11.20;99.90
20125;DHT22;10223;50.862;4.360;2024-02-14T09:29:41;11.20;99.90
20125;DHT22;10223;50.862;4.360;2024-02-14T09:32:08;11.20;99.90
20125;DHT22;10223;50.862;4.360;2024-02-14T09:34:36;11.10;99.90
20125;DHT22;10223;50.862;4.360;2024-02-14T09:37:03;11.10;99.90
20125;DHT22;10223;50.862;4.360;2024-02-14T09:39:32;11.10;99.90
20125;DHT22;10223;50.862;4.360;2024-02-14T09:42:08;11.10;99.90
20125;DHT22;10223;50.862;4.360;2024-02-14T09:44:35;11.10;99.90
20125;DHT22;10223;50.862;4.360;2024-02-14T09:47:05;11.10;99.90
20125;DHT22;10223;50.862;4.360;2024-02-14T09:49:32;11.10;99.90
20125;DHT22;10223;50.862;4.360;2024-02-14T09:52:03;11.10;99.90
20125;DHT22;10223;50.862;4.360;2024-02-14T09:54:32;11.10;99.90
20125;DHT22;10223;50.862;4.360;2024-02-14T09:57:00;11.10;99.90
20125;DHT22;10223;50.862;4.360;2024-02-14T09:59:29;11.10;99.90
20125;DHT22;10223;50.862;4.360;2024-02-14T10:01:56;11.10;99.90
20125;DHT22;10223;50.862;4.360;2024-02-14T10:04:23;11.20;99.90
20125;DHT22;10223;50.862;4.360;2024-02-14T10:06:51;11.10;99.90
20125;DHT22;10223;50.862;4.360;2024-02-14T10:09:20;11.10;99.90
20125;DHT22;10223;50.862;4.360;2024-02-14T10:11:48;11.10;99.90
20125;DHT22;10223;50.862;4.360;2024-02-14T10:14:15;11.10;99.90
20125;DHT22;10223;50.862;4.360;2024-02-14T10:16:42;11.10;99.90
20125;DHT22;10223;50.862;4.360;2024-02-14T10:19:17;11.10;99.90
20125;DHT22;10223;50.862;4.360;2024-02-14T10:21:54;11.10;99.90
20125;DHT22;10223;50.862;4.360;2024-02-14T10:24:24;11.10;99.90
20125;DHT22;10223;50.862;4.360;2024-02-14T10:26:51;11.10;99.90
20125;DHT22;10223;50.862;4.360;2024-02-14T10:29:20;11.20;99.90
20125;DHT22;10223;50.862;4.360;2024-02-14T10:31:47;11.10;99.90
20125;DHT22;10223;50.862;4.360;2024-02-14T10:34:14;11.10;99.90
20125;DHT22;10223;50.862;4.360;2024-02-14T10:36:43;11.10;99.90
20125;DHT22;10223;50.862;4.360;2024-02-14T10:39:11;11.20;99.90
20125;DHT22;10223;50.862;4.360;2024-02-14T10:41:39;11.20;99.90
20125;DHT22;10223;50.862;4.360;2024-02-14T10:44:09;11.20;99.90
20125;DHT22;10223;50.862;4.360;2024-02-14T10:46:39;11.30;99.90
20125;DHT22;10223;50.862;4.360;2024-02-14T10:49:08;11.20;99.90
20125;DHT22;10223;50.862;4.360;2024-02-14T10:51:38;11.30;99.90
20125;DHT22;10223;50.862;4.360;2024-02-14T10:54:10;11.20;99.90
20125;DHT22;10223;50.862;4.360;2024-02-14T10:56:41;11.20;99.90
20125;DHT22;10223;50.862;4.360;2024-02-14T10:59:10;11.20;99.90
20125;DHT22;10223;50.862;4.360;2024-02-14T11:01:39;11.20;99.90
20125;DHT22;10223;50.862;4.360;2024-02-14T11:04:07;11.20;99.90
20125;DHT22;10223;50.862;4.360;2024-02-14T11:06:44;11.20;99.90
20125;DHT22;10223;50.862;4.360;2024-02-14T11:09:12;11.30;99.90
20125;DHT22;10223;50.862;4.360;2024-02-14T11:11:42;11.30;99.90
20125;DHT22;10223;50.862;4.360;2024-02-14T11:14:10;11.40;99.90
20125;DHT22;10223;50.862;4.360;2024-02-14T11:16:38;11.30;99.90
20125;DHT22;10223;50.862;4.360;2024-02-14T11:19:06;11.30;99.90
20125;DHT22;10223;50.862;4.360;2024-02-14T11:21:36;11.30;99.90
20125;DHT22;10223;50.862;4.360;2024-02-14T11:24:05;11.30;99.90
20125;DHT22;10223;50.862;4.360;2024-02-14T11:26:50;11.40;99.90
20125;DHT22;10223;50.862;4.360;2024-02-14T11:29:18;11.40;99.90
20125;DHT22;10223;50.862;4.360;2024-02-14T11:31:45;11.40;99.90
20125;DHT22;10223;50.862;4.360;2024-02-14T11:34:14;11.40;99.90
20125;DHT22;10223;50.862;4.360;2024-02-14T11:36:42;11.40;99.90
20125;DHT22;10223;50.862;4.360;2024-02-14T11:39:09;11.40;99.90
20125;DHT22;10223;50.862;4.360;2024-02-14T11:41:38;11.50;99.90
20125;DHT22;10223;50.862;4.360;2024-02-14T11:44:09;11.50;99.90
20125;DHT22;10223;50.862;4.360;2024-02-14T11:46:37;11.50;99.90
20125;DHT22;10223;50.862;4.360;2024-02-14T11:49:05;11.50;99.90
20125;DHT22;10223;50.862;4.360;2024-02-14T11:51:33;11.60;99.90
20125;DHT22;10223;50.862;4.360;2024-02-14T11:54:02;11.60;99.90
20125;DHT22;10223;50.862;4.360;2024-02-14T11:56:30;11.60;99.90
20125;DHT22;10223;50.862;4.360;2024-02-14T11:58:59;11.60;99.90
20125;DHT22;10223;50.862;4.360;2024-02-14T12:01:30;11.70;99.90
20125;DHT22;10223;50.862;4.360;2024-02-14T12:03:57;11.70;99.90
20125;DHT22;10223;50.862;4.360;2024-02-14T12:06:26;11.70;99.90
20125;DHT22;10223;50.862;4.360;2024-02-14T12:08:53;11.70;99.90
20125;DHT22;10223;50.862;4.360;2024-02-14T12:11:21;11.80;99.90
20125;DHT22;10223;50.862;4.360;2024-02-14T12:13:49;11.80;99.90
20125;DHT22;10223;50.862;4.360;2024-02-14T12:16:19;11.90;99.90
20125;DHT22;10223;50.862;4.360;2024-02-14T12:18:48;11.90;99.90
20125;DHT22;10223;50.862;4.360;2024-02-14T12:21:15;11.90;99.90
20125;DHT22;10223;50.862;4.360;2024-02-14T12:23:42;11.90;99.90
20125;DHT22;10223;50.862;4.360;2024-02-14T12:26:10;11.90;99.90
20125;DHT22;10223;50.862;4.360;2024-02-14T12:28:46;12.00;99.90
20125;DHT22;10223;50.862;4.360;2024-02-14T12:31:22;12.00;99.90
20125;DHT22;10223;50.862;4.360;2024-02-14T12:33:50;12.10;99.90
20125;DHT22;10223;50.862;4.360;2024-02-14T12:36:20;12.10;99.90
20125;DHT22;10223;50.862;4.360;2024-02-14T12:38:47;12.10;99.90
20125;DHT22;10223;50.862;4.360;2024-02-14T12:41:14;12.10;99.90
20125;DHT22;10223;50.862;4.360;2024-02-14T12:43:41;12.20;99.90
20125;DHT22;10223;50.862;4.360;2024-02-14T12:46:07;12.20;99.90
20125;DHT22;10223;50.862;4.360;2024-02-14T12:48:35;12.30;99.90
20125;DHT22;10223;50.862;4.360;2024-02-14T12:51:03;12.30;99.90
20125;DHT22;10223;50.862;4.360;2024-02-14T12:53:30;12.30;99.90
20125;DHT22;10223;50.862;4.360;2024-02-14T12:55:57;12.40;99.90
20125;DHT22;10223;50.862;4.360;2024-02-14T12:58:24;12.30;99.90
20125;DHT22;10223;50.862;4.360;2024-02-14T13:00:52;12.30;99.90
20125;DHT22;10223;50.862;4.360;2024-02-14T13:03:19;12.30;99.90
20125;DHT22;10223;50.862;4.360;2024-02-14T13:05:46;12.30;99.90
20125;DHT22;10223;50.862;4.360;2024-02-14T13:08:14;12.30;99.90
20125;DHT22;10223;50.862;4.360;2024-02-14T13:10:43;12.30;99.90
20125;DHT22;10223;50.862;4.360;2024-02-14T13:13:10;12.30;99.90
20125;DHT22;10223;50.862;4.360;2024-02-14T13:15:37;12.30;99.90
20125;DHT22;10223;50.862;4.360;2024-02-14T13:18:05;12.30;99.90
20125;DHT22;10223;50.862;4.360;2024-02-14T13:20:32;12.30;99.90
20125;DHT22;10223;50.862;4.360;2024-02-14T13:22:59;12.30;99.90
20125;DHT22;10223;50.862;4.360;2024-02-14T13:25:26;12.30;99.90
20125;DHT22;10223;50.862;4.360;2024-02-14T13:27:53;12.30;99.90
20125;DHT22;10223;50.862;4.360;2024-02-14T13:30:21;12.30;99.90
20125;DHT22;10223;50.862;4.360;2024-02-14T13:32:48;12.30;99.90
20125;DHT22;10223;50.862;4.360;2024-02-14T13:35:15;12.30;99.90
20125;DHT22;10223;50.862;4.360;2024-02-14T13:37:42;12.30;99.90
20125;DHT22;10223;50.862;4.360;2024-02-14T13:40:10;12.30;99.90
20125;DHT22;10223;50.862;4.360;2024-02-14T13:42:39;12.30;99.90
20125;DHT22;10223;50.862;4.360;2024-02-14T13:45:06;12.30;99.90
20125;DHT22;10223;50.862;4.360;2024-02-14T13:47:35;12.30;99.90
20125;DHT22;10223;50.862;4.360;2024-02-14T13:50:04;12.30;99.90
20125;DHT22;10223;50.862;4.360;2024-02-14T13:52:31;12.30;99.90
20125;DHT22;10223;50.862;4.360;2024-02-14T13:54:58;12.30;99.90
20125;DHT22;10223;50.862;4.360;2024-02-14T13:57:27;12.30;99.90
20125;DHT22;10223;50.862;4.360;2024-02-14T13:59:56;12.30;99.90
20125;DHT22;10223;50.862;4.360;2024-02-14T14:02:23;12.30;99.90
20125;DHT22;10223;50.862;4.360;2024-02-14T14:04:50;12.30;99.90
20125;DHT22;10223;50.862;4.360;2024-02-14T14:07:18;12.30;99.90
20125;DHT22;10223;50.862;4.360;2024-02-14T14:09:45;12.20;99.90
20125;DHT22;10223;50.862;4.360;2024-02-14T14:12:12;12.20;99.90
20125;DHT22;10223;50.862;4.360;2024-02-14T14:14:39;12.30;99.90
20125;DHT22;10223;50.862;4.360;2024-02-14T14:17:07;12.40;99.90
20125;DHT22;10223;50.862;4.360;2024-02-14T14:19:35;12.40;99.90
20125;DHT22;10223;50.862;4.360;2024-02-14T14:22:02;12.30;99.90
20125;DHT22;10223;50.862;4.360;2024-02-14T14:24:29;12.30;99.90
20125;DHT22;10223;50.862;4.360;2024-02-14T14:26:56;12.40;99.90
20125;DHT22;10223;50.862;4.360;2024-02-14T14:29:24;12.40;99.90
20125;DHT22;10223;50.862;4.360;2024-02-14T14:31:51;12.40;99.90
20125;DHT22;10223;50.862;4.360;2024-02-14T14:34:19;12.40;99.90
20125;DHT22;10223;50.862;4.360;2024-02-14T14:36:49;12.40;99.90
20125;DHT22;10223;50.862;4.360;2024-02-14T14:39:16;12.50;99.90
20125;DHT22;10223;50.862;4.360;2024-02-14T14:41:43;12.50;99.90
20125;DHT22;10223;50.862;4.360;2024-02-14T14:44:10;12.50;99.90
20125;DHT22;10223;50.862;4.360;2024-02-14T14:46:37;12.50;99.90
20125;DHT22;10223;50.862;4.360;2024-02-14T14:49:10;12.50;99.90
20125;DHT22;10223;50.862;4.360;2024-02-14T14:51:39;12.50;99.90
20125;DHT22;10223;50.862;4.360;2024-02-14T14:54:05;12.60;99.90
20125;DHT22;10223;50.862;4.360;2024-02-14T14:56:32;12.60;99.90
20125;DHT22;10223;50.862;4.360;2024-02-14T14:58:59;12.60;99.90
20125;DHT22;10223;50.862;4.360;2024-02-14T15:01:29;12.60;99.90
20125;DHT22;10223;50.862;4.360;2024-02-14T15:03:56;12.60;99.90
20125;DHT22;10223;50.862;4.360;2024-02-14T15:06:26;12.60;99.90
20125;DHT22;10223;50.862;4.360;2024-02-14T15:08:55;12.70;99.90
20125;DHT22;10223;50.862;4.360;2024-02-14T15:11:22;12.70;99.90
20125;DHT22;10223;50.862;4.360;2024-02-14T15:13:49;12.60;99.90
20125;DHT22;10223;50.862;4.360;2024-02-14T15:16:16;12.70;99.90
20125;DHT22;10223;50.862;4.360;2024-02-14T15:18:44;12.60;99.90
20125;DHT22;10223;50.862;4.360;2024-02-14T15:21:11;12.60;99.90
20125;DHT22;10223;50.862;4.360;2024-02-14T15:23:38;12.70;99.90
20125;DHT22;10223;50.862;4.360;2024-02-14T15:26:07;12.70;99.90
20125;DHT22;10223;50.862;4.360;2024-02-14T15:28:37;12.70;99.90
20125;DHT22;10223;50.862;4.360;2024-02-14T15:31:07;12.70;99.90
20125;DHT22;10223;50.862;4.360;2024-02-14T15:33:51;12.60;99.90
20125;DHT22;10223;50.862;4.360;2024-02-14T15:36:18;12.70;99.90
20125;DHT22;10223;50.862;4.360;2024-02-14T15:38:48;12.70;99.90